createdAt,value
2023-04-21T00:00:03.677Z,25.50
2023-04-21T00:01:03.553Z,25.53
2023-04-21T00:02:03.544Z,25.53
2023-04-21T00:03:03.744Z,25.51
2023-04-21T00:04:03.640Z,25.53
2023-04-21T00:05:03.567Z,25.53
2023-04-21T00:06:03.494Z,25.54
2023-04-21T00:07:03.489Z,25.53
2023-04-21T00:08:03.461Z,25.53
2023-04-21T00:09:03.456Z,25.51
2023-04-21T00:10:03.437Z,25.51
2023-04-21T00:11:03.430Z,25.50
2023-04-21T00:12:03.418Z,25.50
2023-04-21T00:13:03.403Z,25.50
2023-04-21T00:14:03.382Z,25.53
2023-04-21T00:15:03.368Z,25.53
2023-04-21T00:16:03.432Z,25.53
2023-04-21T00:17:03.335Z,25.51
2023-04-21T00:18:03.359Z,25.54
2023-04-21T00:19:03.304Z,25.53
2023-04-21T00:20:03.316Z,25.51
2023-04-21T00:21:03.284Z,25.53
2023-04-21T00:22:03.266Z,25.53
2023-04-21T00:23:03.242Z,25.51
2023-04-21T00:24:03.233Z,25.50
2023-04-21T00:25:03.211Z,25.53
2023-04-21T00:26:03.274Z,25.50
2023-04-21T00:27:03.186Z,25.50
2023-04-21T00:28:03.172Z,25.51
2023-04-21T00:29:03.150Z,25.53
2023-04-21T00:30:03.135Z,25.51
2023-04-21T00:31:03.153Z,25.50
2023-04-21T00:32:03.100Z,25.51
2023-04-21T00:33:03.119Z,25.51
2023-04-21T00:34:03.080Z,25.53
2023-04-21T00:35:03.066Z,25.53
2023-04-21T00:36:03.055Z,25.53
2023-04-21T00:37:03.030Z,25.53
2023-04-21T00:38:03.034Z,25.53
2023-04-21T00:39:03.019Z,25.51
2023-04-21T00:40:03.024Z,25.51
2023-04-21T00:41:03.010Z,25.51
2023-04-21T00:42:03.008Z,25.51
2023-04-21T00:43:02.994Z,25.51
2023-04-21T00:44:02.971Z,25.51
2023-04-21T00:45:02.975Z,25.51
2023-04-21T00:46:02.964Z,25.53
2023-04-21T00:47:03.163Z,25.53
2023-04-21T00:48:02.995Z,25.50
2023-04-21T00:49:02.936Z,25.50
2023-04-21T00:50:02.926Z,25.51
2023-04-21T00:51:02.919Z,25.48
2023-04-21T00:52:02.902Z,25.50
2023-04-21T00:53:02.880Z,25.50
2023-04-21T00:54:02.892Z,25.50
2023-04-21T00:55:02.862Z,25.50
2023-04-21T00:56:02.864Z,25.51
2023-04-21T00:57:03.052Z,25.48
2023-04-21T00:58:02.855Z,25.50
2023-04-21T00:59:02.834Z,25.51
2023-04-21T01:00:02.828Z,25.53
2023-04-21T01:01:02.880Z,25.51
2023-04-21T01:02:02.874Z,25.51
2023-04-21T01:03:03.072Z,25.50
2023-04-21T01:04:02.893Z,25.50
2023-04-21T01:05:02.798Z,25.48
2023-04-21T01:06:02.796Z,25.48
2023-04-21T01:07:02.768Z,25.47
2023-04-21T01:08:02.750Z,25.51
2023-04-21T01:09:02.773Z,25.50
2023-04-21T01:10:02.808Z,25.50
2023-04-21T01:11:02.810Z,25.50
2023-04-21T01:12:02.836Z,25.48
2023-04-21T01:13:02.850Z,25.50
2023-04-21T01:14:02.862Z,25.51
2023-04-21T01:15:02.883Z,25.48
2023-04-21T01:16:02.965Z,25.48
2023-04-21T01:17:02.953Z,25.50
2023-04-21T01:18:02.970Z,25.51
2023-04-21T01:19:02.961Z,25.48
2023-04-21T01:20:02.999Z,25.50
2023-04-21T01:21:03.003Z,25.50
2023-04-21T01:22:03.037Z,25.51
2023-04-21T01:23:03.050Z,25.51
2023-04-21T01:24:03.077Z,25.48
2023-04-21T01:25:03.064Z,25.50
2023-04-21T01:26:03.078Z,25.48
2023-04-21T01:27:03.041Z,25.50
2023-04-21T01:28:03.029Z,25.48
2023-04-21T01:29:03.017Z,25.48
2023-04-21T01:30:02.994Z,25.48
2023-04-21T01:31:02.978Z,25.47
2023-04-21T01:32:03.038Z,25.50
2023-04-21T01:33:03.033Z,25.48
2023-04-21T01:34:02.954Z,25.48
2023-04-21T01:35:02.952Z,25.50
2023-04-21T01:36:02.934Z,25.47
2023-04-21T01:37:02.938Z,25.48
2023-04-21T01:38:02.925Z,25.48
2023-04-21T01:39:02.900Z,25.50
2023-04-21T01:40:02.895Z,25.48
2023-04-21T01:41:02.898Z,25.48
2023-04-21T01:42:02.885Z,25.51
2023-04-21T01:43:02.872Z,25.47
2023-04-21T01:44:02.854Z,25.48
2023-04-21T01:45:02.827Z,25.47
2023-04-21T01:46:02.849Z,25.50
2023-04-21T01:47:02.816Z,25.50
2023-04-21T01:48:02.832Z,25.48
2023-04-21T01:49:02.834Z,25.47
2023-04-21T01:50:02.773Z,25.48
2023-04-21T01:51:02.760Z,25.48
2023-04-21T01:52:02.749Z,25.50
2023-04-21T01:53:02.749Z,25.50
2023-04-21T01:54:02.726Z,25.47
2023-04-21T01:55:02.749Z,25.48
2023-04-21T01:56:02.735Z,25.48
2023-04-21T01:57:02.720Z,25.50
2023-04-21T01:58:02.694Z,25.50
2023-04-21T01:59:02.664Z,25.51
2023-04-21T02:00:02.669Z,25.47
2023-04-21T02:01:02.696Z,25.51
2023-04-21T02:02:02.720Z,25.51
2023-04-21T02:03:02.798Z,25.51
2023-04-21T02:04:02.901Z,25.50
2023-04-21T02:05:02.717Z,25.50
2023-04-21T02:06:02.743Z,25.51
2023-04-21T02:07:02.784Z,25.53
2023-04-21T02:08:02.789Z,25.51
2023-04-21T02:09:02.817Z,25.48
2023-04-21T02:10:02.863Z,25.50
2023-04-21T02:11:02.881Z,25.50
2023-04-21T02:12:02.904Z,25.48
2023-04-21T02:13:02.916Z,25.47
2023-04-21T02:14:02.947Z,25.50
2023-04-21T02:15:02.975Z,25.51
2023-04-21T02:16:13.405Z,25.48
2023-04-21T02:17:03.984Z,25.48
2023-04-21T02:18:02.985Z,25.50
2023-04-21T02:19:02.976Z,25.48
2023-04-21T02:20:04.178Z,25.47
2023-04-21T02:21:02.963Z,25.50
2023-04-21T02:22:02.937Z,25.48
2023-04-21T02:23:02.940Z,25.50
2023-04-21T02:24:02.910Z,25.47
2023-04-21T02:25:02.912Z,25.48
2023-04-21T02:26:02.938Z,25.50
2023-04-21T02:27:02.898Z,25.48
2023-04-21T02:28:02.920Z,25.51
2023-04-21T02:29:02.882Z,25.48
2023-04-21T02:30:02.876Z,25.48
2023-04-21T02:31:02.900Z,25.50
2023-04-21T02:32:10.698Z,25.50
2023-04-21T02:33:03.892Z,25.50
2023-04-21T02:34:02.854Z,25.48
2023-04-21T02:35:02.854Z,25.48
2023-04-21T02:36:02.863Z,25.48
2023-04-21T02:37:02.826Z,25.50
2023-04-21T02:38:02.820Z,25.48
2023-04-21T02:39:02.824Z,25.51
2023-04-21T02:40:02.812Z,25.48
2023-04-21T02:41:02.793Z,25.50
2023-04-21T02:42:02.796Z,25.48
2023-04-21T02:43:02.761Z,25.50
2023-04-21T02:44:02.764Z,25.48
2023-04-21T02:45:02.738Z,25.48
2023-04-21T02:46:02.732Z,25.50
2023-04-21T02:47:02.821Z,25.48
2023-04-21T02:48:02.768Z,25.47
2023-04-21T02:49:02.710Z,25.46
2023-04-21T02:50:02.693Z,25.50
2023-04-21T02:51:02.685Z,25.46
2023-04-21T02:52:02.679Z,25.46
2023-04-21T02:53:02.703Z,25.47
2023-04-21T02:54:02.722Z,25.47
2023-04-21T02:55:02.750Z,25.47
2023-04-21T02:56:02.799Z,25.47
2023-04-21T02:57:02.841Z,25.44
2023-04-21T02:58:02.827Z,25.48
2023-04-21T02:59:02.842Z,25.47
2023-04-21T03:00:02.862Z,25.47
2023-04-21T03:01:02.945Z,25.46
2023-04-21T03:02:02.978Z,25.48
2023-04-21T03:03:03.168Z,25.44
2023-04-21T03:04:03.065Z,25.44
2023-04-21T03:05:03.004Z,25.46
2023-04-21T03:06:03.064Z,25.47
2023-04-21T03:07:03.059Z,25.46
2023-04-21T03:08:03.076Z,25.43
2023-04-21T03:09:03.088Z,25.44
2023-04-21T03:10:03.213Z,25.44
2023-04-21T03:11:03.145Z,25.44
2023-04-21T03:12:03.168Z,25.46
2023-04-21T03:13:03.189Z,25.44
2023-04-21T03:14:03.228Z,25.46
2023-04-21T03:15:03.240Z,25.47
2023-04-21T03:16:03.306Z,25.47
2023-04-21T03:17:03.295Z,25.46
2023-04-21T03:18:03.359Z,25.47
2023-04-21T03:19:03.347Z,25.44
2023-04-21T03:20:03.373Z,25.46
2023-04-21T03:21:03.416Z,25.47
2023-04-21T03:22:03.449Z,25.46
2023-04-21T03:23:03.487Z,25.47
2023-04-21T03:24:03.511Z,25.46
2023-04-21T03:25:03.541Z,25.47
2023-04-21T03:26:03.570Z,25.47
2023-04-21T03:27:03.551Z,25.47
2023-04-21T03:28:03.568Z,25.46
2023-04-21T03:29:03.561Z,25.47
2023-04-21T03:30:03.526Z,25.43
2023-04-21T03:31:03.519Z,25.44
2023-04-21T03:32:03.669Z,25.46
2023-04-21T03:33:03.568Z,25.44
2023-04-21T03:34:03.489Z,25.46
2023-04-21T03:35:03.497Z,25.46
2023-04-21T03:36:03.465Z,25.44
2023-04-21T03:37:03.449Z,25.46
2023-04-21T03:38:04.290Z,25.44
2023-04-21T03:39:18.683Z,25.46
2023-04-21T03:40:04.482Z,25.43
2023-04-21T03:41:03.375Z,25.43
2023-04-21T03:42:03.362Z,25.41
2023-04-21T03:43:03.368Z,25.46
2023-04-21T03:44:03.338Z,25.46
2023-04-21T03:45:03.328Z,25.47
2023-04-21T03:46:03.388Z,25.44
2023-04-21T03:47:03.308Z,25.46
2023-04-21T03:48:03.336Z,25.44
2023-04-21T03:49:03.924Z,25.44
2023-04-21T03:50:03.258Z,25.47
2023-04-21T03:51:03.237Z,25.44
2023-04-21T03:52:03.231Z,25.43
2023-04-21T03:53:03.198Z,25.46
2023-04-21T03:54:03.217Z,25.46
2023-04-21T03:55:03.171Z,25.44
2023-04-21T03:56:03.162Z,25.44
2023-04-21T03:57:03.167Z,25.44
2023-04-21T03:58:03.131Z,25.44
2023-04-21T03:59:03.109Z,25.44
2023-04-21T04:00:03.098Z,25.46
2023-04-21T04:01:03.095Z,25.46
2023-04-21T04:02:03.142Z,25.44
2023-04-21T04:03:03.152Z,25.43
2023-04-21T04:04:03.308Z,25.44
2023-04-21T04:05:03.132Z,25.43
2023-04-21T04:06:03.024Z,25.46
2023-04-21T04:07:03.008Z,25.43
2023-04-21T04:08:02.978Z,25.46
2023-04-21T04:09:02.969Z,25.43
2023-04-21T04:10:02.959Z,25.43
2023-04-21T04:11:02.944Z,25.43
2023-04-21T04:12:02.956Z,25.43
2023-04-21T04:13:02.913Z,25.44
2023-04-21T04:14:02.933Z,25.44
2023-04-21T04:15:02.899Z,25.43
2023-04-21T04:16:02.982Z,25.44
2023-04-21T04:17:02.958Z,25.43
2023-04-21T04:18:03.044Z,25.40
2023-04-21T04:19:02.966Z,25.44
2023-04-21T04:20:02.953Z,25.41
2023-04-21T04:21:02.932Z,25.40
2023-04-21T04:22:02.934Z,25.43
2023-04-21T04:23:02.907Z,25.41
2023-04-21T04:24:02.905Z,25.43
2023-04-21T04:25:02.913Z,25.43
2023-04-21T04:26:02.871Z,25.41
2023-04-21T04:27:02.885Z,25.41
2023-04-21T04:28:02.861Z,25.40
2023-04-21T04:29:02.845Z,25.40
2023-04-21T04:30:02.831Z,25.43
2023-04-21T04:31:02.804Z,25.41
2023-04-21T04:32:02.786Z,25.43
2023-04-21T04:33:02.881Z,25.43
2023-04-21T04:34:02.843Z,25.43
2023-04-21T04:35:02.871Z,25.43
2023-04-21T04:36:02.893Z,25.41
2023-04-21T04:37:02.934Z,25.40
2023-04-21T04:38:02.957Z,25.43
2023-04-21T04:39:02.984Z,25.40
2023-04-21T04:40:03.021Z,25.40
2023-04-21T04:41:03.049Z,25.41
2023-04-21T04:42:03.071Z,25.41
2023-04-21T04:43:03.105Z,25.40
2023-04-21T04:44:03.137Z,25.40
2023-04-21T04:45:03.170Z,25.41
2023-04-21T04:46:03.197Z,25.40
2023-04-21T04:47:03.269Z,25.43
2023-04-21T04:48:03.296Z,25.41
2023-04-21T04:49:03.297Z,25.41
2023-04-21T04:50:03.328Z,25.41
2023-04-21T04:51:03.362Z,25.38
2023-04-21T04:52:03.360Z,25.40
2023-04-21T04:53:03.347Z,25.43
2023-04-21T04:54:03.320Z,25.41
2023-04-21T04:55:03.324Z,25.41
2023-04-21T04:56:03.325Z,25.43
2023-04-21T04:57:03.322Z,25.44
2023-04-21T04:58:03.285Z,25.44
2023-04-21T04:59:03.292Z,25.43
2023-04-21T05:00:03.268Z,25.43
2023-04-21T05:01:03.251Z,25.43
2023-04-21T05:02:03.330Z,25.43
2023-04-21T05:03:03.317Z,25.43
2023-04-21T05:04:03.372Z,25.41
2023-04-21T05:05:03.288Z,25.41
2023-04-21T05:06:03.205Z,25.43
2023-04-21T05:07:03.233Z,25.44
2023-04-21T05:08:03.249Z,25.43
2023-04-21T05:09:03.280Z,25.41
2023-04-21T05:10:03.267Z,25.40
2023-04-21T05:11:03.263Z,25.41
2023-04-21T05:12:03.234Z,25.43
2023-04-21T05:13:03.231Z,25.43
2023-04-21T05:14:03.240Z,25.41
2023-04-21T05:15:03.214Z,25.41
2023-04-21T05:16:03.259Z,25.41
2023-04-21T05:17:03.304Z,25.44
2023-04-21T05:18:03.263Z,25.41
2023-04-21T05:19:03.181Z,25.43
2023-04-21T05:20:03.169Z,25.44
2023-04-21T05:21:03.161Z,25.43
2023-04-21T05:22:03.165Z,25.41
2023-04-21T05:23:03.147Z,25.43
2023-04-21T05:24:03.146Z,25.41
2023-04-21T05:25:03.129Z,25.43
2023-04-21T05:26:04.681Z,25.43
2023-04-21T05:27:03.118Z,25.46
2023-04-21T05:28:03.096Z,25.43
2023-04-21T05:29:03.126Z,25.43
2023-04-21T05:30:03.121Z,25.43
2023-04-21T05:31:03.112Z,25.43
2023-04-21T05:32:03.151Z,25.40
2023-04-21T05:33:03.181Z,25.44
2023-04-21T05:34:03.105Z,25.36
2023-04-21T05:35:03.195Z,25.40
2023-04-21T05:36:03.048Z,25.44
2023-04-21T05:37:03.070Z,25.48
2023-04-21T05:38:03.024Z,25.48
2023-04-21T05:39:03.008Z,25.56
2023-04-21T05:40:02.979Z,25.54
2023-04-21T05:41:02.972Z,25.53
2023-04-21T05:42:02.952Z,25.56
2023-04-21T05:43:02.962Z,25.56
2023-04-21T05:44:02.933Z,25.58
2023-04-21T05:45:02.912Z,25.58
2023-04-21T05:46:02.967Z,25.63
2023-04-21T05:47:02.883Z,25.67
2023-04-21T05:48:02.928Z,25.73
2023-04-21T05:49:02.873Z,25.80
2023-04-21T05:50:02.921Z,25.80
2023-04-21T05:51:02.885Z,25.81
2023-04-21T05:52:02.825Z,25.87
2023-04-21T05:53:02.818Z,25.87
2023-04-21T05:54:02.812Z,25.92
2023-04-21T05:55:02.788Z,25.93
2023-04-21T05:56:02.761Z,26.01
2023-04-21T05:57:02.762Z,26.03
2023-04-21T05:58:02.742Z,26.06
2023-04-21T05:59:02.739Z,26.08
2023-04-21T06:00:02.754Z,26.12
2023-04-21T06:01:02.766Z,26.13
2023-04-21T06:02:02.900Z,26.18
2023-04-21T06:03:02.973Z,26.19
2023-04-21T06:04:03.149Z,26.22
2023-04-21T06:05:03.082Z,26.22
2023-04-21T06:06:03.057Z,26.26
2023-04-21T06:07:03.026Z,26.26
2023-04-21T06:08:03.102Z,26.30
2023-04-21T06:09:03.093Z,26.29
2023-04-21T06:10:03.135Z,26.27
2023-04-21T06:11:03.171Z,26.29
2023-04-21T06:12:03.226Z,26.25
2023-04-21T06:13:03.248Z,26.23
2023-04-21T06:14:03.241Z,25.89
2023-04-21T06:15:03.278Z,25.84
2023-04-21T06:16:03.272Z,25.74
2023-04-21T06:17:03.288Z,25.67
2023-04-21T06:18:03.269Z,25.65
2023-04-21T06:19:03.242Z,25.65
2023-04-21T06:20:03.246Z,25.65
2023-04-21T06:21:03.224Z,25.67
2023-04-21T06:22:03.209Z,25.73
2023-04-21T06:23:03.205Z,25.77
2023-04-21T06:24:03.197Z,25.82
2023-04-21T06:25:03.187Z,25.85
2023-04-21T06:26:03.159Z,25.88
2023-04-21T06:27:03.162Z,25.95
2023-04-21T06:28:03.149Z,25.96
2023-04-21T06:29:03.119Z,26.02
2023-04-21T06:30:03.105Z,26.06
2023-04-21T06:31:03.126Z,26.08
2023-04-21T06:32:03.204Z,26.10
2023-04-21T06:33:03.130Z,26.10
2023-04-21T06:34:03.135Z,26.12
2023-04-21T06:35:03.176Z,26.12
2023-04-21T06:36:03.234Z,26.13
2023-04-21T06:37:03.302Z,26.10
2023-04-21T06:38:03.379Z,26.13
2023-04-21T06:39:03.425Z,26.12
2023-04-21T06:40:03.460Z,26.10
2023-04-21T06:41:03.494Z,26.10
2023-04-21T06:42:03.480Z,25.96
2023-04-21T06:43:03.500Z,25.85
2023-04-21T06:44:03.469Z,25.81
2023-04-21T06:45:03.476Z,25.80
2023-04-21T06:46:03.483Z,25.81
2023-04-21T06:47:03.539Z,25.78
2023-04-21T06:48:03.490Z,25.74
2023-04-21T06:49:03.439Z,25.74
2023-04-21T06:50:03.445Z,25.73
2023-04-21T06:51:03.430Z,25.68
2023-04-21T06:52:03.444Z,25.63
2023-04-21T06:53:03.465Z,25.61
2023-04-21T06:54:03.445Z,25.58
2023-04-21T06:55:03.513Z,25.58
2023-04-21T06:56:03.561Z,25.61
2023-04-21T06:57:03.627Z,25.60
2023-04-21T06:58:03.634Z,25.60
2023-04-21T06:59:03.741Z,25.60
2023-04-21T07:00:03.764Z,25.57
2023-04-21T07:01:03.955Z,25.54
2023-04-21T07:02:03.896Z,25.53
2023-04-21T07:03:04.032Z,25.53
2023-04-21T07:04:04.030Z,25.53
2023-04-21T07:05:04.034Z,25.50
2023-04-21T07:06:04.110Z,25.50
2023-04-21T07:07:04.157Z,25.51
2023-04-21T07:08:04.202Z,25.48
2023-04-21T07:09:04.263Z,25.47
2023-04-21T07:10:04.331Z,25.46
2023-04-21T07:11:04.401Z,25.47
2023-04-21T07:12:04.449Z,25.47
2023-04-21T07:13:04.440Z,25.46
2023-04-21T07:14:04.424Z,25.43
2023-04-21T07:15:04.448Z,25.43
2023-04-21T07:16:04.451Z,25.43
2023-04-21T07:17:04.574Z,25.43
2023-04-21T07:18:04.455Z,25.47
2023-04-21T07:19:04.401Z,25.44
2023-04-21T07:20:04.373Z,25.47
2023-04-21T07:21:04.383Z,25.47
2023-04-21T07:22:04.404Z,25.46
2023-04-21T07:23:04.356Z,25.47
2023-04-21T07:24:04.341Z,25.50
2023-04-21T07:25:04.344Z,25.51
2023-04-21T07:26:04.361Z,25.56
2023-04-21T07:27:04.330Z,25.63
2023-04-21T07:28:04.317Z,25.68
2023-04-21T07:29:04.292Z,25.80
2023-04-21T07:30:04.283Z,25.82
2023-04-21T07:31:04.412Z,25.95
2023-04-21T07:32:04.268Z,26.01
2023-04-21T07:33:04.290Z,26.13
2023-04-21T07:34:04.218Z,26.25
2023-04-21T07:35:04.193Z,26.36
2023-04-21T07:36:04.193Z,26.39
2023-04-21T07:37:04.175Z,26.48
2023-04-21T07:38:04.162Z,26.55
2023-04-21T07:39:04.158Z,26.65
2023-04-21T07:40:04.129Z,26.55
2023-04-21T07:41:04.128Z,26.35
2023-04-21T07:42:04.096Z,26.16
2023-04-21T07:43:04.102Z,26.08
2023-04-21T07:44:04.319Z,26.05
2023-04-21T07:45:04.079Z,25.98
2023-04-21T07:46:04.089Z,25.95
2023-04-21T07:47:04.076Z,25.85
2023-04-21T07:48:04.174Z,25.81
2023-04-21T07:49:04.314Z,25.71
2023-04-21T07:50:04.021Z,25.68
2023-04-21T07:51:04.018Z,25.64
2023-04-21T07:52:04.016Z,25.63
2023-04-21T07:53:04.004Z,25.58
2023-04-21T07:54:04.018Z,25.64
2023-04-21T07:55:04.074Z,25.57
2023-04-21T07:56:04.080Z,25.50
2023-04-21T07:57:04.086Z,25.29
2023-04-21T07:58:04.213Z,25.25
2023-04-21T07:59:04.126Z,25.18
2023-04-21T08:00:04.173Z,25.09
2023-04-21T08:01:04.236Z,25.03
2023-04-21T08:02:04.326Z,24.99
2023-04-21T08:03:04.365Z,25.03
2023-04-21T08:04:04.394Z,24.96
2023-04-21T08:05:04.414Z,24.82
2023-04-21T08:06:04.792Z,24.81
2023-04-21T08:07:04.472Z,24.78
2023-04-21T08:08:04.294Z,24.84
2023-04-21T08:09:04.306Z,24.89
2023-04-21T08:10:04.268Z,24.96
2023-04-21T08:11:04.320Z,25.03
2023-04-21T08:12:04.280Z,25.13
2023-04-21T08:13:04.247Z,25.20
2023-04-21T08:14:04.266Z,25.32
2023-04-21T08:15:04.228Z,25.38
2023-04-21T08:16:04.283Z,25.44
2023-04-21T08:17:04.285Z,25.57
2023-04-21T08:18:04.345Z,25.63
2023-04-21T08:19:04.302Z,25.67
2023-04-21T08:20:04.316Z,25.70
2023-04-21T08:21:04.346Z,25.70
2023-04-21T08:22:04.397Z,25.73
2023-04-21T08:23:04.424Z,25.80
2023-04-21T08:24:04.386Z,25.92
2023-04-21T08:25:04.515Z,26.01
2023-04-21T08:26:04.367Z,26.02
2023-04-21T08:27:04.345Z,26.05
2023-04-21T08:28:04.324Z,25.98
2023-04-21T08:29:04.713Z,25.98
2023-04-21T08:30:04.693Z,26.02
2023-04-21T08:31:04.408Z,25.96
2023-04-21T08:32:04.530Z,26.01
2023-04-21T08:33:04.387Z,26.01
2023-04-21T08:34:04.454Z,26.02
2023-04-21T08:35:04.319Z,25.99
2023-04-21T08:36:12.194Z,25.92
2023-04-21T08:37:05.341Z,25.88
2023-04-21T08:38:04.330Z,25.74
2023-04-21T08:39:04.309Z,25.61
2023-04-21T08:40:04.307Z,25.48
2023-04-21T08:41:04.311Z,25.29
2023-04-21T08:42:04.285Z,25.18
2023-04-21T08:43:04.275Z,25.05
2023-04-21T08:44:04.262Z,24.98
2023-04-21T08:45:04.252Z,24.89
2023-04-21T08:46:04.260Z,24.79
2023-04-21T08:47:04.261Z,24.70
2023-04-21T08:48:04.275Z,24.63
2023-04-21T08:49:04.243Z,24.50
2023-04-21T08:50:04.237Z,24.50
2023-04-21T08:51:04.224Z,24.33
2023-04-21T08:52:04.234Z,24.23
2023-04-21T08:53:04.236Z,24.20
2023-04-21T08:54:04.246Z,24.13
2023-04-21T08:55:04.218Z,24.06
2023-04-21T08:56:11.275Z,23.99
2023-04-21T08:57:15.199Z,23.88
2023-04-21T08:58:05.207Z,23.79
2023-04-21T08:59:04.202Z,23.71
2023-04-21T09:00:07.342Z,23.64
2023-04-21T09:01:04.397Z,23.58
2023-04-21T09:02:04.260Z,23.57
2023-04-21T09:03:06.891Z,23.47
2023-04-21T09:04:05.266Z,23.46
2023-04-21T09:05:04.452Z,23.53
2023-04-21T09:06:04.567Z,23.64
2023-04-21T09:07:04.198Z,23.64
2023-04-21T09:08:04.187Z,23.67
2023-04-21T09:09:04.227Z,23.68
2023-04-21T09:10:04.197Z,23.72
2023-04-21T09:11:04.194Z,23.71
2023-04-21T09:12:04.208Z,23.68
2023-04-21T09:13:04.196Z,23.64
2023-04-21T09:14:04.208Z,23.67
2023-04-21T09:15:04.208Z,23.68
2023-04-21T09:16:05.754Z,23.69
2023-04-21T09:17:04.369Z,23.79
2023-04-21T09:18:04.216Z,23.84
2023-04-21T09:19:04.210Z,23.85
2023-04-21T09:20:04.237Z,23.85
2023-04-21T09:21:04.214Z,23.89
2023-04-21T09:22:04.240Z,23.88
2023-04-21T09:23:04.223Z,23.91
2023-04-21T09:24:04.215Z,23.94
2023-04-21T09:25:04.218Z,23.98
2023-04-21T09:26:04.239Z,24.02
2023-04-21T09:27:04.225Z,24.03
2023-04-21T09:28:04.219Z,24.03
2023-04-21T09:29:04.221Z,24.03
2023-04-21T09:30:04.217Z,24.08
2023-04-21T09:31:04.271Z,24.19
2023-04-21T09:32:04.216Z,24.17
2023-04-21T09:33:13.364Z,24.19
2023-04-21T09:34:05.207Z,24.15
2023-04-21T09:35:04.194Z,24.15
2023-04-21T09:36:04.222Z,24.08
2023-04-21T09:37:04.209Z,24.08
2023-04-21T09:38:04.222Z,24.03
2023-04-21T09:40:05.431Z,24.06
2023-04-21T09:41:04.189Z,24.12
2023-04-21T09:42:04.215Z,24.17
2023-04-21T09:43:04.192Z,24.16
2023-04-21T09:44:04.204Z,24.24
2023-04-21T09:45:16.862Z,24.34
2023-04-21T09:46:05.276Z,24.43
2023-04-21T09:47:04.175Z,24.53
2023-04-21T09:48:04.244Z,24.58
2023-04-21T09:49:04.166Z,24.65
2023-04-21T09:50:04.165Z,24.67
2023-04-21T09:51:25.590Z,24.64
2023-04-21T09:52:18.351Z,24.51
2023-04-21T09:53:05.160Z,24.44
2023-04-21T09:54:04.145Z,24.36
2023-04-21T09:55:04.148Z,24.26
2023-04-21T09:56:04.160Z,24.19
2023-04-21T09:57:04.163Z,24.20
2023-04-21T09:58:04.201Z,24.20
2023-04-21T09:59:04.154Z,24.26
2023-04-21T10:00:04.157Z,24.33
2023-04-21T10:01:04.204Z,24.31
2023-04-21T10:02:04.291Z,24.30
2023-04-21T10:03:04.279Z,24.23
2023-04-21T10:04:04.461Z,24.26
2023-04-21T10:05:04.306Z,24.23
2023-04-21T10:06:04.368Z,24.29
2023-04-21T10:07:04.137Z,24.29
2023-04-21T10:08:04.134Z,24.24
2023-04-21T10:09:04.186Z,24.24
2023-04-21T10:10:04.132Z,24.30
2023-04-21T10:11:04.129Z,24.29
2023-04-21T10:12:04.482Z,24.22
2023-04-21T10:13:04.136Z,24.16
2023-04-21T10:14:04.131Z,24.16
2023-04-21T10:15:04.126Z,24.13
2023-04-21T10:16:04.157Z,24.15
2023-04-21T10:17:04.120Z,24.09
2023-04-21T10:18:04.163Z,24.11
2023-04-21T10:19:04.115Z,24.08
2023-04-21T10:20:04.116Z,24.13
2023-04-21T10:21:04.123Z,24.09
2023-04-21T10:22:04.120Z,24.13
2023-04-21T10:23:04.141Z,24.15
2023-04-21T10:24:04.160Z,24.19
2023-04-21T10:25:04.149Z,24.17
2023-04-21T10:26:04.144Z,24.15
2023-04-21T10:27:04.159Z,24.16
2023-04-21T10:28:04.163Z,24.24
2023-04-21T10:29:04.197Z,24.30
2023-04-21T10:30:04.233Z,24.39
2023-04-21T10:31:04.335Z,24.46
2023-04-21T10:32:05.690Z,24.53
2023-04-21T10:33:04.488Z,24.61
2023-04-21T10:34:04.413Z,24.65
2023-04-21T10:35:04.444Z,24.70
2023-04-21T10:36:04.523Z,24.71
2023-04-21T10:37:04.576Z,24.79
2023-04-21T10:38:05.948Z,24.84
2023-04-21T10:39:04.625Z,24.86
2023-04-21T10:40:04.600Z,25.02
2023-04-21T10:41:04.609Z,25.12
2023-04-21T10:42:04.587Z,25.20
2023-04-21T10:43:04.572Z,25.29
2023-04-21T10:44:04.560Z,25.37
2023-04-21T10:45:04.580Z,25.41
2023-04-21T10:46:04.544Z,25.44
2023-04-21T10:47:04.558Z,25.41
2023-04-21T10:48:04.565Z,25.40
2023-04-21T10:49:04.508Z,25.43
2023-04-21T10:50:04.503Z,25.48
2023-04-21T10:51:04.503Z,25.48
2023-04-21T10:52:04.489Z,25.50
2023-04-21T10:53:04.477Z,25.46
2023-04-21T10:54:04.474Z,25.46
2023-04-21T10:55:04.454Z,25.37
2023-04-21T10:56:04.506Z,25.29
2023-04-21T10:57:04.445Z,25.18
2023-04-21T10:58:04.475Z,25.16
2023-04-21T10:59:04.441Z,25.10
2023-04-21T11:00:04.428Z,25.13
2023-04-21T11:01:04.468Z,25.15
2023-04-21T11:02:04.476Z,25.16
2023-04-21T11:03:04.711Z,25.20
2023-04-21T11:04:04.580Z,25.20
2023-04-21T11:05:04.455Z,25.18
2023-04-21T11:06:04.393Z,25.15
2023-04-21T11:07:04.399Z,25.13
2023-04-21T11:08:04.382Z,25.08
2023-04-21T11:09:04.368Z,25.09
2023-04-21T11:10:04.364Z,25.03
2023-04-21T11:11:04.376Z,24.99
2023-04-21T11:12:04.365Z,24.91
2023-04-21T11:13:04.377Z,24.86
2023-04-21T11:14:04.369Z,24.82
2023-04-21T11:15:04.361Z,24.79
2023-04-21T11:16:04.356Z,24.77
2023-04-21T11:17:04.459Z,24.77
2023-04-21T11:18:04.389Z,24.75
2023-04-21T11:19:04.346Z,24.75
2023-04-21T11:20:04.441Z,24.75
2023-04-21T11:21:04.341Z,24.75
2023-04-21T11:22:04.348Z,24.71
2023-04-21T11:23:04.347Z,24.63
2023-04-21T11:24:04.356Z,24.61
2023-04-21T11:25:04.352Z,24.60
2023-04-21T11:26:04.355Z,24.60
2023-04-21T11:27:04.351Z,24.60
2023-04-21T11:28:04.359Z,24.57
2023-04-21T11:29:04.375Z,24.60
2023-04-21T11:30:04.358Z,24.64
2023-04-21T11:31:04.446Z,24.63
2023-04-21T11:32:04.374Z,24.65
2023-04-21T11:33:04.391Z,24.67
2023-04-21T11:34:04.339Z,24.72
2023-04-21T11:35:04.342Z,24.71
2023-04-21T11:36:04.340Z,24.72
2023-04-21T11:37:04.334Z,24.74
2023-04-21T11:38:04.380Z,24.74
2023-04-21T11:39:04.457Z,24.78
2023-04-21T11:40:04.484Z,24.78
2023-04-21T11:41:04.538Z,24.75
2023-04-21T11:42:04.552Z,24.79
2023-04-21T11:43:04.573Z,24.79
2023-04-21T11:44:04.791Z,24.84
2023-04-21T11:45:04.631Z,24.84
2023-04-21T11:46:04.670Z,24.84
2023-04-21T11:47:04.703Z,24.81
2023-04-21T11:48:04.820Z,24.85
2023-04-21T11:49:04.832Z,24.88
2023-04-21T11:50:04.868Z,24.91
2023-04-21T11:51:04.891Z,24.95
2023-04-21T11:52:04.913Z,25.03
2023-04-21T11:53:04.923Z,25.06
2023-04-21T11:54:04.926Z,25.13
2023-04-21T11:55:04.952Z,25.22
2023-04-21T11:56:04.947Z,25.29
2023-04-21T11:57:04.931Z,25.38
2023-04-21T11:58:04.922Z,25.44
2023-04-21T11:59:04.923Z,25.53
2023-04-21T12:00:04.903Z,25.61
2023-04-21T12:01:04.891Z,25.63
2023-04-21T12:02:04.895Z,25.71
2023-04-21T12:03:05.140Z,25.77
2023-04-21T12:04:05.109Z,25.78
2023-04-21T12:05:05.148Z,25.84
2023-04-21T12:06:04.873Z,25.89
2023-04-21T12:07:04.832Z,25.92
2023-04-21T12:08:04.833Z,25.96
2023-04-21T12:09:04.820Z,25.98
2023-04-21T12:10:04.801Z,26.02
2023-04-21T12:11:04.780Z,26.05
2023-04-21T12:12:04.783Z,26.06
2023-04-21T12:13:04.759Z,26.08
2023-04-21T12:14:04.748Z,26.12
2023-04-21T12:15:04.742Z,26.13
2023-04-21T12:16:04.794Z,26.16
2023-04-21T12:17:04.710Z,26.18
2023-04-21T12:18:04.775Z,26.19
2023-04-21T12:19:04.787Z,26.19
2023-04-21T12:20:04.827Z,26.23
2023-04-21T12:21:04.835Z,26.23
2023-04-21T12:22:04.799Z,26.23
2023-04-21T12:23:04.800Z,26.26
2023-04-21T12:24:04.782Z,26.30
2023-04-21T12:25:04.760Z,26.32
2023-04-21T12:26:04.751Z,26.33
2023-04-21T12:27:04.726Z,26.36
2023-04-21T12:28:04.734Z,26.40
2023-04-21T12:29:04.701Z,26.39
2023-04-21T12:30:04.712Z,26.43
2023-04-21T12:31:04.763Z,26.46
2023-04-21T12:32:04.836Z,26.48
2023-04-21T12:33:04.841Z,26.50
2023-04-21T12:34:04.859Z,26.53
2023-04-21T12:35:04.780Z,26.55
2023-04-21T12:36:04.784Z,26.54
2023-04-21T12:37:04.818Z,26.58
2023-04-21T12:38:04.824Z,26.57
2023-04-21T12:39:04.821Z,26.60
2023-04-21T12:40:04.861Z,26.63
2023-04-21T12:41:04.840Z,26.67
2023-04-21T12:42:04.858Z,26.70
2023-04-21T12:43:04.857Z,26.71
2023-04-21T12:44:04.862Z,26.75
2023-04-21T12:45:04.867Z,26.77
2023-04-21T12:46:04.912Z,26.77
2023-04-21T12:47:04.891Z,26.78
2023-04-21T12:48:04.991Z,26.80
2023-04-21T12:49:04.898Z,26.81
2023-04-21T12:50:04.917Z,26.82
2023-04-21T12:51:04.912Z,26.82
2023-04-21T12:52:04.927Z,26.81
2023-04-21T12:53:04.944Z,26.84